Bangui, Central African Republic

3:29 AM WAT on July 06, 2015 (GMT +0100)
M'Poko | | Change Station
CLOSE
Current Station
Airport
Location: Bangui,
Elevation: 1201 ft
Nearby Weather Stations

Elev 1201 ft 4.40 °N, 18.52 °E | Updated 29 minutes ago

Mostly Cloudy
Mostly Cloudy
72 °F
Feels Like 72 °F
N
2
Wind Variable Wind from Variable

Today
High -- | Low -- °F
--% Chance of Precip.
Yesterday
High -- | Low -- °F
Precip. -- in
5:39 AM 6:01 PM
Waning Gibbous, 80% visible
Pressure 29.92 in
Visibility 6.2 miles
Clouds Few 1300 ft
Mostly Cloudy 15000 ft
Dew Point 72 °F
Humidity 100%
Rainfall 0.00 in
Snow Depth Not available.
UV 0 out of 12
Pollen Not available.
Air Quality Not available.
Flu Activity Not available.
METAR FEFF 060200Z VRB02KT 9999 FEW013 BKN150 22/22 Q1013 NOSIG

More Conditions Fewer Conditions

Pressure 29.92 in
Visibility 6.2 miles
Clouds Few 1300 ft
Mostly Cloudy 15000 ft
Dew Point 72 °F
Humidity 100%
Rainfall 0.00 in
Snow Depth Not available.
UV 0 out of 12
Pollen Not available.
Air Quality Not available.
Flu Activity Not available.
METAR FEFF 060200Z VRB02KT 9999 FEW013 BKN150 22/22 Q1013 NOSIG

More Conditions Fewer Conditions

10-Day Weather Forecast

×

Almanac

Astronomy

Jul. 06, 2015 Rise Set
Actual Time
Civil Twilight
Nautical Twilight
Astronomical Twilight
Moon
Length of Visible Light
Length of Day
Tomorrow will be .
, % of the Moon is Illuminated

Today's Extremes

Country Highs Country Lows

Community

WunderPhotos

Upload Photos

1,835,451 photos uploaded!

WunderBlogs® & News

Nearby

Air Quality

  Air Quality AQ Index Pollutant
Not available.

Snow Depth

Station Depth Elevation

Earthquake Activity

City Distance Mag. Time & Date
Minimum magnitude displayed is 2.5.

Coastal Water Temperatures

Place Temperature

Stations

Nearby Weather Stations

Station Location Temp. Windchill Dew Point Humidity Wind Precip. Elev Updated Type